Terminal Aerodrome Forecast
Issued by NWS Rapid City, SD

Home | Current Version | Previous Version | Graphics & Text | Print | Product List | Glossary On
Versions: 1 2 3 4 5 6 7 8 9 10 11 12 13 14
763
FTUS43 KUNR 041724
TAFRAP
TAF
KRAP 041724Z 0418/0518 22009KT P6SM BKN250
     FM050800 26008KT P6SM BKN100
     FM051100 31008KT P6SM OVC100
     FM051300 33013G23KT P6SM -SHSN BKN025 OVC060
     FM051500 33025G35KT 2SM -SN OVC015=

USA.gov is the U.S. government's official web portal to all federal, state and local government web resources and services.